sensor_id;sensor_type;location;lat;lon;timestamp;P1;durP1;ratioP1;P2;durP2;ratioP2
58294;SDS011;45705;55.592;37.460;2023-08-06T00:00:06;11.15;;;7.38;;
58294;SDS011;45705;55.592;37.460;2023-08-06T00:02:35;11.35;;;7.00;;
58294;SDS011;45705;55.592;37.460;2023-08-06T00:05:01;10.77;;;7.22;;
58294;SDS011;45705;55.592;37.460;2023-08-06T00:07:31;12.00;;;6.80;;
58294;SDS011;45705;55.592;37.460;2023-08-06T00:09:57;15.57;;;6.68;;
58294;SDS011;45705;55.592;37.460;2023-08-06T00:12:23;13.10;;;7.45;;
58294;SDS011;45705;55.592;37.460;2023-08-06T00:14:52;10.90;;;7.55;;
58294;SDS011;45705;55.592;37.460;2023-08-06T00:17:19;12.60;;;7.00;;
58294;SDS011;45705;55.592;37.460;2023-08-06T00:19:44;12.13;;;6.25;;
58294;SDS011;45705;55.592;37.460;2023-08-06T00:22:10;10.60;;;7.00;;
58294;SDS011;45705;55.592;37.460;2023-08-06T00:24:36;10.82;;;7.18;;
58294;SDS011;45705;55.592;37.460;2023-08-06T00:27:02;12.68;;;7.30;;
58294;SDS011;45705;55.592;37.460;2023-08-06T00:29:28;10.07;;;6.80;;
58294;SDS011;45705;55.592;37.460;2023-08-06T00:31:54;10.15;;;7.32;;
58294;SDS011;45705;55.592;37.460;2023-08-06T00:34:20;11.43;;;7.40;;
58294;SDS011;45705;55.592;37.460;2023-08-06T00:36:46;13.60;;;6.40;;
58294;SDS011;45705;55.592;37.460;2023-08-06T00:39:12;8.90;;;6.63;;
58294;SDS011;45705;55.592;37.460;2023-08-06T00:41:38;9.40;;;6.60;;
58294;SDS011;45705;55.592;37.460;2023-08-06T00:44:03;11.90;;;7.07;;
58294;SDS011;45705;55.592;37.460;2023-08-06T00:46:29;11.77;;;6.88;;
58294;SDS011;45705;55.592;37.460;2023-08-06T00:48:57;9.20;;;7.07;;
58294;SDS011;45705;55.592;37.460;2023-08-06T00:51:28;9.70;;;7.22;;
58294;SDS011;45705;55.592;37.460;2023-08-06T00:53:55;12.52;;;6.90;;
58294;SDS011;45705;55.592;37.460;2023-08-06T00:56:21;10.18;;;6.63;;
58294;SDS011;45705;55.592;37.460;2023-08-06T00:58:47;14.77;;;7.28;;
58294;SDS011;45705;55.592;37.460;2023-08-06T01:01:13;9.80;;;6.78;;
58294;SDS011;45705;55.592;37.460;2023-08-06T01:03:39;11.27;;;6.93;;
58294;SDS011;45705;55.592;37.460;2023-08-06T01:06:04;11.63;;;7.10;;
58294;SDS011;45705;55.592;37.460;2023-08-06T01:09:15;11.43;;;7.03;;
58294;SDS011;45705;55.592;37.460;2023-08-06T01:14:06;15.57;;;7.53;;
58294;SDS011;45705;55.592;37.460;2023-08-06T01:16:39;12.20;;;7.20;;
58294;SDS011;45705;55.592;37.460;2023-08-06T01:19:15;10.57;;;7.13;;
58294;SDS011;45705;55.592;37.460;2023-08-06T01:21:42;11.20;;;7.35;;
58294;SDS011;45705;55.592;37.460;2023-08-06T01:24:08;9.57;;;7.13;;
58294;SDS011;45705;55.592;37.460;2023-08-06T01:26:58;13.70;;;7.30;;
58294;SDS011;45705;55.592;37.460;2023-08-06T01:32:04;11.60;;;6.70;;
58294;SDS011;45705;55.592;37.460;2023-08-06T01:34:32;11.88;;;7.40;;
58294;SDS011;45705;55.592;37.460;2023-08-06T01:36:59;9.60;;;6.80;;
58294;SDS011;45705;55.592;37.460;2023-08-06T01:39:26;12.60;;;6.97;;
58294;SDS011;45705;55.592;37.460;2023-08-06T01:41:52;11.23;;;6.40;;
58294;SDS011;45705;55.592;37.460;2023-08-06T01:44:18;11.40;;;7.28;;
58294;SDS011;45705;55.592;37.460;2023-08-06T01:46:44;12.15;;;7.30;;
58294;SDS011;45705;55.592;37.460;2023-08-06T01:49:10;12.65;;;7.25;;
58294;SDS011;45705;55.592;37.460;2023-08-06T01:51:35;9.70;;;6.80;;
58294;SDS011;45705;55.592;37.460;2023-08-06T01:54:01;10.75;;;6.90;;
58294;SDS011;45705;55.592;37.460;2023-08-06T01:56:27;15.55;;;6.95;;
58294;SDS011;45705;55.592;37.460;2023-08-06T01:58:53;12.63;;;7.47;;
58294;SDS011;45705;55.592;37.460;2023-08-06T02:01:18;12.18;;;7.07;;
58294;SDS011;45705;55.592;37.460;2023-08-06T02:03:44;13.20;;;6.95;;
58294;SDS011;45705;55.592;37.460;2023-08-06T02:06:10;13.32;;;7.32;;
58294;SDS011;45705;55.592;37.460;2023-08-06T02:08:36;10.25;;;7.22;;
58294;SDS011;45705;55.592;37.460;2023-08-06T02:11:02;11.52;;;7.00;;
58294;SDS011;45705;55.592;37.460;2023-08-06T02:13:30;8.90;;;6.50;;
58294;SDS011;45705;55.592;37.460;2023-08-06T02:15:57;13.73;;;7.15;;
58294;SDS011;45705;55.592;37.460;2023-08-06T02:18:24;9.80;;;7.27;;
58294;SDS011;45705;55.592;37.460;2023-08-06T02:20:56;13.25;;;7.47;;
58294;SDS011;45705;55.592;37.460;2023-08-06T02:23:23;14.95;;;7.30;;
58294;SDS011;45705;55.592;37.460;2023-08-06T02:25:56;15.93;;;6.93;;
58294;SDS011;45705;55.592;37.460;2023-08-06T02:28:22;10.93;;;6.90;;
58294;SDS011;45705;55.592;37.460;2023-08-06T02:30:51;9.95;;;6.32;;
58294;SDS011;45705;55.592;37.460;2023-08-06T02:33:17;13.02;;;7.15;;
58294;SDS011;45705;55.592;37.460;2023-08-06T02:35:43;11.13;;;6.85;;
58294;SDS011;45705;55.592;37.460;2023-08-06T02:38:08;12.35;;;6.90;;
58294;SDS011;45705;55.592;37.460;2023-08-06T02:40:34;9.88;;;6.40;;
58294;SDS011;45705;55.592;37.460;2023-08-06T02:43:00;11.93;;;6.57;;
58294;SDS011;45705;55.592;37.460;2023-08-06T02:45:25;10.15;;;6.97;;
58294;SDS011;45705;55.592;37.460;2023-08-06T02:47:51;13.18;;;5.97;;
58294;SDS011;45705;55.592;37.460;2023-08-06T02:50:17;13.50;;;6.80;;
58294;SDS011;45705;55.592;37.460;2023-08-06T02:52:43;7.97;;;6.15;;
58294;SDS011;45705;55.592;37.460;2023-08-06T02:55:09;10.90;;;6.43;;
58294;SDS011;45705;55.592;37.460;2023-08-06T02:57:39;12.52;;;6.20;;
58294;SDS011;45705;55.592;37.460;2023-08-06T03:00:05;13.50;;;6.32;;
58294;SDS011;45705;55.592;37.460;2023-08-06T03:02:32;8.93;;;6.32;;
58294;SDS011;45705;55.592;37.460;2023-08-06T03:05:11;8.60;;;6.18;;
58294;SDS011;45705;55.592;37.460;2023-08-06T03:07:42;10.07;;;6.43;;
58294;SDS011;45705;55.592;37.460;2023-08-06T03:10:14;12.25;;;5.82;;
58294;SDS011;45705;55.592;37.460;2023-08-06T03:12:41;12.30;;;5.95;;
58294;SDS011;45705;55.592;37.460;2023-08-06T03:15:07;13.07;;;6.75;;
58294;SDS011;45705;55.592;37.460;2023-08-06T03:17:33;10.98;;;6.18;;
58294;SDS011;45705;55.592;37.460;2023-08-06T03:20:00;12.38;;;6.50;;
58294;SDS011;45705;55.592;37.460;2023-08-06T03:22:27;14.27;;;5.85;;
58294;SDS011;45705;55.592;37.460;2023-08-06T03:24:53;13.85;;;6.45;;
58294;SDS011;45705;55.592;37.460;2023-08-06T03:27:21;9.52;;;6.30;;
58294;SDS011;45705;55.592;37.460;2023-08-06T03:29:49;11.93;;;6.25;;
58294;SDS011;45705;55.592;37.460;2023-08-06T03:32:17;9.45;;;5.38;;
58294;SDS011;45705;55.592;37.460;2023-08-06T03:34:42;10.65;;;5.90;;
58294;SDS011;45705;55.592;37.460;2023-08-06T03:37:08;11.73;;;5.50;;
58294;SDS011;45705;55.592;37.460;2023-08-06T03:39:34;7.45;;;5.10;;
58294;SDS011;45705;55.592;37.460;2023-08-06T03:42:02;13.73;;;6.03;;
58294;SDS011;45705;55.592;37.460;2023-08-06T03:44:28;11.13;;;5.32;;
58294;SDS011;45705;55.592;37.460;2023-08-06T03:46:54;10.05;;;5.07;;
58294;SDS011;45705;55.592;37.460;2023-08-06T03:49:20;12.35;;;5.40;;
58294;SDS011;45705;55.592;37.460;2023-08-06T03:51:46;7.03;;;5.13;;
58294;SDS011;45705;55.592;37.460;2023-08-06T03:54:12;9.15;;;5.20;;
58294;SDS011;45705;55.592;37.460;2023-08-06T03:56:38;10.35;;;5.05;;
58294;SDS011;45705;55.592;37.460;2023-08-06T03:59:04;8.60;;;5.20;;
58294;SDS011;45705;55.592;37.460;2023-08-06T04:01:30;14.45;;;5.22;;
58294;SDS011;45705;55.592;37.460;2023-08-06T04:03:56;8.88;;;5.22;;
58294;SDS011;45705;55.592;37.460;2023-08-06T04:06:22;9.98;;;4.80;;
58294;SDS011;45705;55.592;37.460;2023-08-06T04:08:48;8.93;;;4.90;;
58294;SDS011;45705;55.592;37.460;2023-08-06T04:11:14;10.65;;;4.78;;
58294;SDS011;45705;55.592;37.460;2023-08-06T04:13:44;10.27;;;4.72;;
58294;SDS011;45705;55.592;37.460;2023-08-06T04:16:10;8.98;;;4.82;;
58294;SDS011;45705;55.592;37.460;2023-08-06T04:18:36;9.32;;;4.55;;
58294;SDS011;45705;55.592;37.460;2023-08-06T04:21:02;11.35;;;4.53;;
58294;SDS011;45705;55.592;37.460;2023-08-06T04:23:28;7.43;;;4.07;;
58294;SDS011;45705;55.592;37.460;2023-08-06T04:25:58;8.45;;;5.07;;
58294;SDS011;45705;55.592;37.460;2023-08-06T04:28:27;13.07;;;4.22;;
58294;SDS011;45705;55.592;37.460;2023-08-06T04:30:53;14.43;;;4.45;;
58294;SDS011;45705;55.592;37.460;2023-08-06T04:33:20;7.67;;;4.03;;
58294;SDS011;45705;55.592;37.460;2023-08-06T04:35:47;6.22;;;4.10;;
58294;SDS011;45705;55.592;37.460;2023-08-06T04:38:18;4.20;;;3.65;;
58294;SDS011;45705;55.592;37.460;2023-08-06T04:40:44;5.82;;;4.05;;
58294;SDS011;45705;55.592;37.460;2023-08-06T04:43:10;6.00;;;3.55;;
58294;SDS011;45705;55.592;37.460;2023-08-06T04:45:35;7.25;;;4.10;;
58294;SDS011;45705;55.592;37.460;2023-08-06T04:48:01;7.68;;;3.67;;
58294;SDS011;45705;55.592;37.460;2023-08-06T04:50:27;7.43;;;3.70;;
58294;SDS011;45705;55.592;37.460;2023-08-06T04:52:53;7.32;;;3.85;;
58294;SDS011;45705;55.592;37.460;2023-08-06T04:55:19;9.85;;;3.90;;
58294;SDS011;45705;55.592;37.460;2023-08-06T04:57:45;7.53;;;3.80;;
58294;SDS011;45705;55.592;37.460;2023-08-06T05:00:11;9.60;;;3.63;;
58294;SDS011;45705;55.592;37.460;2023-08-06T05:02:37;10.93;;;3.83;;
58294;SDS011;45705;55.592;37.460;2023-08-06T05:05:04;7.45;;;3.90;;
58294;SDS011;45705;55.592;37.460;2023-08-06T05:07:30;9.07;;;3.77;;
58294;SDS011;45705;55.592;37.460;2023-08-06T05:09:56;6.65;;;3.70;;
58294;SDS011;45705;55.592;37.460;2023-08-06T05:12:21;8.63;;;3.92;;
58294;SDS011;45705;55.592;37.460;2023-08-06T05:14:47;4.43;;;3.00;;
58294;SDS011;45705;55.592;37.460;2023-08-06T05:17:13;12.13;;;4.20;;
58294;SDS011;45705;55.592;37.460;2023-08-06T05:19:38;7.82;;;3.95;;
58294;SDS011;45705;55.592;37.460;2023-08-06T05:22:04;12.82;;;3.80;;
58294;SDS011;45705;55.592;37.460;2023-08-06T05:24:30;5.47;;;3.38;;
58294;SDS011;45705;55.592;37.460;2023-08-06T05:26:56;7.15;;;4.00;;
58294;SDS011;45705;55.592;37.460;2023-08-06T05:29:21;6.35;;;3.72;;
58294;SDS011;45705;55.592;37.460;2023-08-06T05:31:47;7.50;;;3.75;;
58294;SDS011;45705;55.592;37.460;2023-08-06T05:34:13;7.35;;;3.65;;
58294;SDS011;45705;55.592;37.460;2023-08-06T05:36:39;7.68;;;3.80;;
58294;SDS011;45705;55.592;37.460;2023-08-06T05:39:04;6.13;;;3.60;;
58294;SDS011;45705;55.592;37.460;2023-08-06T05:41:30;6.70;;;3.65;;
58294;SDS011;45705;55.592;37.460;2023-08-06T05:43:56;7.97;;;3.60;;
58294;SDS011;45705;55.592;37.460;2023-08-06T05:46:22;8.10;;;3.63;;
58294;SDS011;45705;55.592;37.460;2023-08-06T05:48:48;6.30;;;3.88;;
58294;SDS011;45705;55.592;37.460;2023-08-06T05:51:16;6.30;;;3.63;;
58294;SDS011;45705;55.592;37.460;2023-08-06T05:53:42;4.72;;;3.38;;
58294;SDS011;45705;55.592;37.460;2023-08-06T05:56:07;3.47;;;3.17;;
58294;SDS011;45705;55.592;37.460;2023-08-06T05:58:33;5.90;;;3.50;;
58294;SDS011;45705;55.592;37.460;2023-08-06T06:00:59;6.90;;;3.63;;
58294;SDS011;45705;55.592;37.460;2023-08-06T06:03:25;8.97;;;4.03;;
58294;SDS011;45705;55.592;37.460;2023-08-06T06:05:50;4.67;;;3.50;;
58294;SDS011;45705;55.592;37.460;2023-08-06T06:08:16;4.83;;;3.70;;
58294;SDS011;45705;55.592;37.460;2023-08-06T06:10:42;6.33;;;3.70;;
58294;SDS011;45705;55.592;37.460;2023-08-06T06:13:07;3.90;;;3.27;;
58294;SDS011;45705;55.592;37.460;2023-08-06T06:15:33;9.17;;;3.70;;
58294;SDS011;45705;55.592;37.460;2023-08-06T06:17:59;6.37;;;3.90;;
58294;SDS011;45705;55.592;37.460;2023-08-06T06:20:25;5.47;;;3.30;;
58294;SDS011;45705;55.592;37.460;2023-08-06T06:22:50;10.83;;;3.50;;
58294;SDS011;45705;55.592;37.460;2023-08-06T06:25:16;3.80;;;3.10;;
58294;SDS011;45705;55.592;37.460;2023-08-06T06:27:42;7.20;;;4.00;;
58294;SDS011;45705;55.592;37.460;2023-08-06T06:30:08;6.23;;;3.47;;
58294;SDS011;45705;55.592;37.460;2023-08-06T06:32:34;5.68;;;3.25;;
58294;SDS011;45705;55.592;37.460;2023-08-06T06:35:00;9.93;;;3.30;;
58294;SDS011;45705;55.592;37.460;2023-08-06T06:37:27;6.55;;;3.35;;
58294;SDS011;45705;55.592;37.460;2023-08-06T06:39:53;10.77;;;3.87;;
58294;SDS011;45705;55.592;37.460;2023-08-06T06:42:19;7.77;;;3.50;;
58294;SDS011;45705;55.592;37.460;2023-08-06T06:44:49;3.97;;;2.92;;
58294;SDS011;45705;55.592;37.460;2023-08-06T06:47:15;8.17;;;3.60;;
58294;SDS011;45705;55.592;37.460;2023-08-06T06:49:41;10.03;;;3.67;;
58294;SDS011;45705;55.592;37.460;2023-08-06T06:52:07;4.47;;;3.60;;
58294;SDS011;45705;55.592;37.460;2023-08-06T06:54:33;5.33;;;3.40;;
58294;SDS011;45705;55.592;37.460;2023-08-06T06:56:58;9.47;;;3.57;;
58294;SDS011;45705;55.592;37.460;2023-08-06T06:59:24;6.83;;;3.30;;
58294;SDS011;45705;55.592;37.460;2023-08-06T07:01:50;5.97;;;3.50;;
58294;SDS011;45705;55.592;37.460;2023-08-06T07:04:15;4.30;;;3.23;;
58294;SDS011;45705;55.592;37.460;2023-08-06T07:06:41;4.83;;;3.33;;
58294;SDS011;45705;55.592;37.460;2023-08-06T07:09:07;3.90;;;3.10;;
58294;SDS011;45705;55.592;37.460;2023-08-06T07:11:33;7.77;;;3.37;;
58294;SDS011;45705;55.592;37.460;2023-08-06T07:13:58;4.80;;;3.80;;
58294;SDS011;45705;55.592;37.460;2023-08-06T07:16:24;6.57;;;3.40;;
58294;SDS011;45705;55.592;37.460;2023-08-06T07:18:51;8.40;;;3.70;;
58294;SDS011;45705;55.592;37.460;2023-08-06T07:21:18;6.30;;;3.33;;
58294;SDS011;45705;55.592;37.460;2023-08-06T07:23:44;11.80;;;4.00;;
58294;SDS011;45705;55.592;37.460;2023-08-06T07:26:11;8.05;;;3.53;;
58294;SDS011;45705;55.592;37.460;2023-08-06T07:28:38;5.95;;;3.80;;
58294;SDS011;45705;55.592;37.460;2023-08-06T07:31:04;9.73;;;4.10;;
58294;SDS011;45705;55.592;37.460;2023-08-06T07:33:30;9.63;;;4.00;;
58294;SDS011;45705;55.592;37.460;2023-08-06T07:35:55;4.47;;;3.40;;
58294;SDS011;45705;55.592;37.460;2023-08-06T07:38:21;7.07;;;3.40;;
58294;SDS011;45705;55.592;37.460;2023-08-06T07:40:47;5.38;;;3.72;;
58294;SDS011;45705;55.592;37.460;2023-08-06T07:43:13;5.57;;;3.92;;
58294;SDS011;45705;55.592;37.460;2023-08-06T07:45:39;5.85;;;3.88;;
58294;SDS011;45705;55.592;37.460;2023-08-06T07:48:05;9.27;;;4.32;;
58294;SDS011;45705;55.592;37.460;2023-08-06T07:50:31;6.43;;;4.10;;
58294;SDS011;45705;55.592;37.460;2023-08-06T07:52:57;5.15;;;4.32;;
58294;SDS011;45705;55.592;37.460;2023-08-06T07:55:23;7.50;;;4.45;;
58294;SDS011;45705;55.592;37.460;2023-08-06T07:57:49;5.95;;;4.47;;
58294;SDS011;45705;55.592;37.460;2023-08-06T08:00:15;10.80;;;4.90;;
58294;SDS011;45705;55.592;37.460;2023-08-06T08:02:40;9.65;;;4.45;;
58294;SDS011;45705;55.592;37.460;2023-08-06T08:05:06;6.57;;;4.40;;
58294;SDS011;45705;55.592;37.460;2023-08-06T08:07:34;6.07;;;4.15;;
58294;SDS011;45705;55.592;37.460;2023-08-06T08:10:00;7.43;;;4.78;;
58294;SDS011;45705;55.592;37.460;2023-08-06T08:12:26;11.02;;;4.70;;
58294;SDS011;45705;55.592;37.460;2023-08-06T08:14:52;9.57;;;4.70;;
58294;SDS011;45705;55.592;37.460;2023-08-06T08:17:17;8.30;;;5.15;;
58294;SDS011;45705;55.592;37.460;2023-08-06T08:19:43;9.05;;;4.57;;
58294;SDS011;45705;55.592;37.460;2023-08-06T08:22:09;10.35;;;5.15;;
58294;SDS011;45705;55.592;37.460;2023-08-06T08:24:35;8.73;;;5.25;;
58294;SDS011;45705;55.592;37.460;2023-08-06T08:27:01;9.02;;;4.72;;
58294;SDS011;45705;55.592;37.460;2023-08-06T08:29:27;11.18;;;5.20;;
58294;SDS011;45705;55.592;37.460;2023-08-06T08:31:53;5.68;;;5.18;;
58294;SDS011;45705;55.592;37.460;2023-08-06T08:34:18;8.55;;;4.88;;
58294;SDS011;45705;55.592;37.460;2023-08-06T08:36:44;7.75;;;4.75;;
58294;SDS011;45705;55.592;37.460;2023-08-06T08:39:13;8.73;;;5.65;;
58294;SDS011;45705;55.592;37.460;2023-08-06T08:41:39;12.50;;;5.67;;
58294;SDS011;45705;55.592;37.460;2023-08-06T08:44:07;7.68;;;4.85;;
58294;SDS011;45705;55.592;37.460;2023-08-06T08:46:38;9.20;;;5.00;;
58294;SDS011;45705;55.592;37.460;2023-08-06T08:49:06;8.43;;;5.15;;
58294;SDS011;45705;55.592;37.460;2023-08-06T08:51:32;7.57;;;4.60;;
58294;SDS011;45705;55.592;37.460;2023-08-06T08:54:01;8.18;;;5.15;;
58294;SDS011;45705;55.592;37.460;2023-08-06T08:56:28;11.23;;;4.70;;
58294;SDS011;45705;55.592;37.460;2023-08-06T08:58:55;10.00;;;4.80;;
58294;SDS011;45705;55.592;37.460;2023-08-06T09:01:24;8.73;;;5.32;;
58294;SDS011;45705;55.592;37.460;2023-08-06T09:03:51;7.95;;;5.13;;
58294;SDS011;45705;55.592;37.460;2023-08-06T09:06:19;9.85;;;5.50;;
58294;SDS011;45705;55.592;37.460;2023-08-06T09:09:30;17.00;;;6.03;;
58294;SDS011;45705;55.592;37.460;2023-08-06T09:11:44;10.27;;;5.05;;
58294;SDS011;45705;55.592;37.460;2023-08-06T09:14:10;13.63;;;5.20;;
58294;SDS011;45705;55.592;37.460;2023-08-06T09:16:36;9.70;;;5.05;;
58294;SDS011;45705;55.592;37.460;2023-08-06T09:19:09;7.47;;;5.35;;
58294;SDS011;45705;55.592;37.460;2023-08-06T09:21:40;10.77;;;5.13;;
58294;SDS011;45705;55.592;37.460;2023-08-06T09:24:11;9.52;;;5.50;;
58294;SDS011;45705;55.592;37.460;2023-08-06T09:26:39;7.95;;;5.35;;
58294;SDS011;45705;55.592;37.460;2023-08-06T09:29:05;5.97;;;5.00;;
58294;SDS011;45705;55.592;37.460;2023-08-06T09:31:46;10.85;;;5.85;;
58294;SDS011;45705;55.592;37.460;2023-08-06T09:34:16;8.65;;;4.80;;
58294;SDS011;45705;55.592;37.460;2023-08-06T09:36:47;8.35;;;5.13;;
58294;SDS011;45705;55.592;37.460;2023-08-06T09:39:14;12.10;;;5.40;;
58294;SDS011;45705;55.592;37.460;2023-08-06T09:41:41;8.38;;;5.72;;
58294;SDS011;45705;55.592;37.460;2023-08-06T09:44:17;8.43;;;5.95;;
58294;SDS011;45705;55.592;37.460;2023-08-06T09:46:48;8.05;;;5.57;;
58294;SDS011;45705;55.592;37.460;2023-08-06T09:49:15;12.30;;;6.53;;
58294;SDS011;45705;55.592;37.460;2023-08-06T09:51:41;7.60;;;5.90;;
58294;SDS011;45705;55.592;37.460;2023-08-06T09:54:07;13.40;;;6.03;;
58294;SDS011;45705;55.592;37.460;2023-08-06T09:56:37;6.85;;;5.20;;
58294;SDS011;45705;55.592;37.460;2023-08-06T09:59:04;8.48;;;5.35;;
58294;SDS011;45705;55.592;37.460;2023-08-06T10:01:32;6.45;;;5.63;;
58294;SDS011;45705;55.592;37.460;2023-08-06T10:03:59;6.93;;;5.55;;
58294;SDS011;45705;55.592;37.460;2023-08-06T10:06:27;7.90;;;5.40;;
58294;SDS011;45705;55.592;37.460;2023-08-06T10:08:54;9.27;;;5.72;;
58294;SDS011;45705;55.592;37.460;2023-08-06T10:11:21;8.43;;;5.80;;
58294;SDS011;45705;55.592;37.460;2023-08-06T10:13:49;7.63;;;5.72;;
58294;SDS011;45705;55.592;37.460;2023-08-06T10:16:19;9.55;;;5.53;;
58294;SDS011;45705;55.592;37.460;2023-08-06T10:18:46;11.07;;;6.18;;
58294;SDS011;45705;55.592;37.460;2023-08-06T10:21:14;11.82;;;5.97;;
58294;SDS011;45705;55.592;37.460;2023-08-06T10:23:41;12.30;;;6.00;;
58294;SDS011;45705;55.592;37.460;2023-08-06T10:26:07;7.72;;;5.72;;
58294;SDS011;45705;55.592;37.460;2023-08-06T10:28:36;6.72;;;5.85;;
58294;SDS011;45705;55.592;37.460;2023-08-06T10:31:03;8.48;;;5.72;;
58294;SDS011;45705;55.592;37.460;2023-08-06T10:33:40;8.82;;;5.40;;
58294;SDS011;45705;55.592;37.460;2023-08-06T10:36:09;9.18;;;5.47;;
58294;SDS011;45705;55.592;37.460;2023-08-06T10:38:43;11.07;;;6.10;;
58294;SDS011;45705;55.592;37.460;2023-08-06T10:41:23;13.45;;;6.40;;
58294;SDS011;45705;55.592;37.460;2023-08-06T10:43:49;7.57;;;5.78;;
58294;SDS011;45705;55.592;37.460;2023-08-06T10:46:25;11.00;;;5.47;;
58294;SDS011;45705;55.592;37.460;2023-08-06T10:48:52;9.82;;;5.55;;
58294;SDS011;45705;55.592;37.460;2023-08-06T10:51:18;6.28;;;5.47;;
58294;SDS011;45705;55.592;37.460;2023-08-06T10:53:45;11.75;;;5.68;;
58294;SDS011;45705;55.592;37.460;2023-08-06T10:58:48;9.55;;;5.50;;
58294;SDS011;45705;55.592;37.460;2023-08-06T11:01:15;8.90;;;5.90;;
58294;SDS011;45705;55.592;37.460;2023-08-06T11:03:41;8.43;;;5.95;;
58294;SDS011;45705;55.592;37.460;2023-08-06T11:08:35;7.88;;;5.55;;
58294;SDS011;45705;55.592;37.460;2023-08-06T11:11:09;8.52;;;5.90;;
58294;SDS011;45705;55.592;37.460;2023-08-06T11:13:39;9.57;;;6.00;;
58294;SDS011;45705;55.592;37.460;2023-08-06T11:16:06;18.40;;;6.00;;
58294;SDS011;45705;55.592;37.460;2023-08-06T11:18:32;6.95;;;5.72;;
58294;SDS011;45705;55.592;37.460;2023-08-06T11:21:01;6.43;;;5.82;;
58294;SDS011;45705;55.592;37.460;2023-08-06T11:23:28;6.68;;;5.88;;
58294;SDS011;45705;55.592;37.460;2023-08-06T11:25:54;7.65;;;5.78;;
58294;SDS011;45705;55.592;37.460;2023-08-06T11:28:21;6.82;;;5.50;;
58294;SDS011;45705;55.592;37.460;2023-08-06T11:30:47;7.85;;;6.28;;
58294;SDS011;45705;55.592;37.460;2023-08-06T11:33:13;7.82;;;5.55;;
58294;SDS011;45705;55.592;37.460;2023-08-06T11:35:39;10.65;;;6.25;;
58294;SDS011;45705;55.592;37.460;2023-08-06T11:38:05;8.98;;;5.78;;
58294;SDS011;45705;55.592;37.460;2023-08-06T11:40:32;9.45;;;6.20;;
58294;SDS011;45705;55.592;37.460;2023-08-06T11:42:58;12.02;;;5.90;;
58294;SDS011;45705;55.592;37.460;2023-08-06T11:45:24;13.05;;;6.22;;
58294;SDS011;45705;55.592;37.460;2023-08-06T11:47:51;9.07;;;5.88;;
58294;SDS011;45705;55.592;37.460;2023-08-06T11:50:26;8.82;;;5.65;;
58294;SDS011;45705;55.592;37.460;2023-08-06T11:52:54;8.77;;;5.85;;
58294;SDS011;45705;55.592;37.460;2023-08-06T11:55:23;6.85;;;5.57;;
58294;SDS011;45705;55.592;37.460;2023-08-06T12:00:15;7.22;;;5.65;;
58294;SDS011;45705;55.592;37.460;2023-08-06T12:02:45;11.07;;;5.63;;
58294;SDS011;45705;55.592;37.460;2023-08-06T12:05:15;10.43;;;5.33;;
58294;SDS011;45705;55.592;37.460;2023-08-06T12:07:43;12.13;;;5.53;;
58294;SDS011;45705;55.592;37.460;2023-08-06T12:10:11;7.45;;;5.90;;
58294;SDS011;45705;55.592;37.460;2023-08-06T12:12:38;8.85;;;5.88;;
58294;SDS011;45705;55.592;37.460;2023-08-06T12:15:04;6.03;;;5.18;;
58294;SDS011;45705;55.592;37.460;2023-08-06T12:19:57;9.02;;;5.03;;
58294;SDS011;45705;55.592;37.460;2023-08-06T12:22:23;7.72;;;5.68;;
58294;SDS011;45705;55.592;37.460;2023-08-06T12:24:49;6.85;;;5.30;;
58294;SDS011;45705;55.592;37.460;2023-08-06T12:27:15;9.70;;;5.85;;
58294;SDS011;45705;55.592;37.460;2023-08-06T12:29:45;8.13;;;5.55;;
58294;SDS011;45705;55.592;37.460;2023-08-06T12:32:13;9.38;;;5.70;;
58294;SDS011;45705;55.592;37.460;2023-08-06T12:34:40;7.68;;;5.35;;
58294;SDS011;45705;55.592;37.460;2023-08-06T12:37:06;6.63;;;5.15;;
58294;SDS011;45705;55.592;37.460;2023-08-06T12:39:33;8.40;;;5.45;;
58294;SDS011;45705;55.592;37.460;2023-08-06T12:42:00;7.80;;;5.80;;
58294;SDS011;45705;55.592;37.460;2023-08-06T12:44:26;5.63;;;5.00;;
58294;SDS011;45705;55.592;37.460;2023-08-06T12:46:52;11.25;;;5.50;;
58294;SDS011;45705;55.592;37.460;2023-08-06T12:49:19;5.38;;;4.78;;
58294;SDS011;45705;55.592;37.460;2023-08-06T12:51:48;7.20;;;5.32;;
58294;SDS011;45705;55.592;37.460;2023-08-06T12:54:16;6.97;;;5.22;;
58294;SDS011;45705;55.592;37.460;2023-08-06T12:56:43;7.32;;;5.20;;
58294;SDS011;45705;55.592;37.460;2023-08-06T12:59:09;7.90;;;5.30;;
58294;SDS011;45705;55.592;37.460;2023-08-06T13:01:36;8.35;;;4.72;;
58294;SDS011;45705;55.592;37.460;2023-08-06T13:06:28;9.95;;;5.32;;
58294;SDS011;45705;55.592;37.460;2023-08-06T13:08:54;7.97;;;5.57;;
58294;SDS011;45705;55.592;37.460;2023-08-06T13:11:20;10.30;;;5.30;;
58294;SDS011;45705;55.592;37.460;2023-08-06T13:13:46;9.20;;;5.55;;
58294;SDS011;45705;55.592;37.460;2023-08-06T13:16:11;12.52;;;5.13;;
58294;SDS011;45705;55.592;37.460;2023-08-06T13:18:37;9.52;;;5.30;;
58294;SDS011;45705;55.592;37.460;2023-08-06T13:21:03;10.10;;;5.20;;
58294;SDS011;45705;55.592;37.460;2023-08-06T13:23:28;7.25;;;5.45;;
58294;SDS011;45705;55.592;37.460;2023-08-06T13:25:54;8.32;;;4.75;;
58294;SDS011;45705;55.592;37.460;2023-08-06T13:28:20;7.82;;;4.80;;
58294;SDS011;45705;55.592;37.460;2023-08-06T13:30:46;8.35;;;4.90;;
58294;SDS011;45705;55.592;37.460;2023-08-06T13:33:12;5.70;;;4.78;;
58294;SDS011;45705;55.592;37.460;2023-08-06T13:35:38;9.82;;;5.00;;
58294;SDS011;45705;55.592;37.460;2023-08-06T13:38:04;8.20;;;4.80;;
58294;SDS011;45705;55.592;37.460;2023-08-06T13:40:31;6.10;;;4.90;;
58294;SDS011;45705;55.592;37.460;2023-08-06T13:42:58;8.73;;;5.13;;
58294;SDS011;45705;55.592;37.460;2023-08-06T13:45:24;7.05;;;5.00;;
58294;SDS011;45705;55.592;37.460;2023-08-06T13:47:50;6.72;;;4.57;;
58294;SDS011;45705;55.592;37.460;2023-08-06T13:50:15;9.50;;;4.90;;
58294;SDS011;45705;55.592;37.460;2023-08-06T13:52:41;8.07;;;5.25;;
58294;SDS011;45705;55.592;37.460;2023-08-06T13:55:07;8.60;;;5.50;;
58294;SDS011;45705;55.592;37.460;2023-08-06T13:57:36;7.97;;;5.32;;
58294;SDS011;45705;55.592;37.460;2023-08-06T14:00:02;8.90;;;5.00;;
58294;SDS011;45705;55.592;37.460;2023-08-06T14:02:38;9.52;;;5.90;;
58294;SDS011;45705;55.592;37.460;2023-08-06T14:05:04;8.82;;;5.38;;
58294;SDS011;45705;55.592;37.460;2023-08-06T14:07:31;10.20;;;5.75;;
58294;SDS011;45705;55.592;37.460;2023-08-06T14:09:57;9.73;;;5.43;;
58294;SDS011;45705;55.592;37.460;2023-08-06T14:12:23;6.00;;;5.18;;
58294;SDS011;45705;55.592;37.460;2023-08-06T14:14:50;9.43;;;5.45;;
58294;SDS011;45705;55.592;37.460;2023-08-06T14:17:16;12.30;;;5.72;;
58294;SDS011;45705;55.592;37.460;2023-08-06T14:19:41;5.10;;;4.60;;
58294;SDS011;45705;55.592;37.460;2023-08-06T14:22:07;8.65;;;5.57;;
58294;SDS011;45705;55.592;37.460;2023-08-06T14:24:33;10.65;;;5.68;;
58294;SDS011;45705;55.592;37.460;2023-08-06T14:26:58;8.02;;;5.75;;
58294;SDS011;45705;55.592;37.460;2023-08-06T14:29:24;9.65;;;5.85;;
58294;SDS011;45705;55.592;37.460;2023-08-06T14:31:50;13.30;;;6.07;;
58294;SDS011;45705;55.592;37.460;2023-08-06T14:34:16;9.70;;;5.97;;
58294;SDS011;45705;55.592;37.460;2023-08-06T14:36:42;9.35;;;5.68;;
58294;SDS011;45705;55.592;37.460;2023-08-06T14:39:08;9.57;;;5.85;;
58294;SDS011;45705;55.592;37.460;2023-08-06T14:41:34;11.68;;;6.13;;
58294;SDS011;45705;55.592;37.460;2023-08-06T14:44:00;10.57;;;6.30;;
58294;SDS011;45705;55.592;37.460;2023-08-06T14:46:25;11.90;;;6.45;;